Time;durP1;ratioP1;P1;durP2;ratioP2;P2;SDS_P1;SDS_P2;PMS_P1;PMS_P2;Temp;Humidity;BMP_temperature;BMP_pressure;BME280_temperature;BME280_humidity;BME280_pressure;Samples;Min_cycle;Max_cycle;Signal;HPM_P1;HPM_P2
2023/04/22 00:01:39;;;;;;;36.15;33.80;;;;;;;18.07;46.74;100688.22;5015594;28;20558;-88
2023/04/22 00:04:06;;;;;;;33.45;31.52;;;;;;;18.06;47.01;100692.03;5017065;28;20034;-88
2023/04/22 00:06:31;;;;;;;34.45;32.22;;;;;;;18.02;46.43;100688.28;5017224;28;20437;-88
2023/04/22 00:08:57;;;;;;;33.35;31.08;;;;;;;18.00;46.82;100682.31;5017446;28;20034;-88
2023/04/22 00:11:22;;;;;;;34.70;32.30;;;;;;;17.97;47.05;100680.16;5017102;28;20084;-88
2023/04/22 00:13:47;;;;;;;33.88;31.77;;;;;;;17.94;46.66;100678.84;5017329;28;20088;-87
2023/04/22 00:16:14;;;;;;;32.38;30.27;;;;;;;17.92;47.08;100680.22;4999752;28;20054;-84
2023/04/22 00:18:40;;;;;;;32.75;30.70;;;;;;;17.89;46.85;100672.59;5017572;28;20116;-88
2023/04/22 00:21:06;;;;;;;32.05;30.23;;;;;;;17.87;47.15;100680.31;5017117;28;20038;-89
2023/04/22 00:23:32;;;;;;;33.95;31.65;;;;;;;17.84;46.70;100678.97;5016877;28;20029;-89
2023/04/22 00:25:57;;;;;;;32.78;30.70;;;;;;;17.82;46.75;100680.38;5016816;28;20355;-89
2023/04/22 00:28:23;;;;;;;33.67;31.63;;;;;;;17.79;47.00;100673.53;4999398;28;20058;-89
2023/04/22 00:30:48;;;;;;;31.80;29.88;;;;;;;17.76;46.77;100673.28;5016793;28;20558;-89
2023/04/22 00:33:13;;;;;;;33.15;31.05;;;;;;;17.74;46.99;100679.06;5016039;28;20083;-89
2023/04/22 00:35:39;;;;;;;32.53;30.52;;;;;;;17.71;46.75;100683.19;5015809;28;20030;-88
2023/04/22 00:38:04;;;;;;;31.40;29.60;;;;;;;17.69;47.11;100690.06;4999605;28;20374;-89
2023/04/22 00:40:30;;;;;;;32.25;30.15;;;;;;;17.67;46.67;100686.78;5016453;28;20390;-89
2023/04/22 00:42:55;;;;;;;32.75;30.83;;;;;;;17.64;46.83;100690.94;5016591;28;20033;-88
2023/04/22 00:45:21;;;;;;;33.50;31.48;;;;;;;17.61;46.61;100694.22;5016488;28;20474;-86
2023/04/22 00:47:47;;;;;;;34.33;32.25;;;;;;;17.60;47.35;100697.25;5018843;28;20037;-88
2023/04/22 00:50:14;;;;;;;30.77;28.92;;;;;;;17.57;47.21;100695.13;5030630;28;20038;-78
2023/04/22 00:52:40;;;;;;;34.83;32.55;;;;;;;17.54;46.76;100699.25;5007619;28;20057;-88
2023/04/22 00:55:05;;;;;;;32.08;29.95;;;;;;;17.51;46.91;100689.72;5017489;28;20026;-89
2023/04/22 00:57:32;;;;;;;31.52;29.55;;;;;;;17.48;46.80;100693.00;5017347;28;20485;-88
2023/04/22 00:59:58;;;;;;;32.17;30.23;;;;;;;17.47;47.10;100691.38;5017217;28;20119;-86
2023/04/22 01:02:23;;;;;;;30.42;28.70;;;;;;;17.44;46.80;100700.16;5016450;28;20034;-85
2023/04/22 01:04:49;;;;;;;30.35;28.52;;;;;;;17.42;46.68;100699.63;5016042;28;20040;-88
2023/04/22 01:07:14;;;;;;;32.92;30.92;;;;;;;17.40;47.02;100703.75;5015701;28;20037;-87
2023/04/22 01:09:40;;;;;;;34.63;32.47;;;;;;;17.38;46.94;100709.50;5016082;28;20060;-89
2023/04/22 01:12:06;;;;;;;31.83;29.77;;;;;;;17.35;46.94;100712.81;5016300;28;20048;-88
2023/04/22 01:14:31;;;;;;;31.90;29.90;;;;;;;17.33;46.84;100706.81;5018179;28;20044;-88
2023/04/22 01:16:57;;;;;;;31.13;29.30;;;;;;;17.31;46.98;100711.75;5016860;28;20478;-89
2023/04/22 01:19:23;;;;;;;30.50;28.80;;;;;;;17.28;47.18;100702.22;5015839;28;20481;-89
2023/04/22 01:21:50;;;;;;;31.52;29.65;;;;;;;17.26;47.17;100700.88;5015496;28;20037;-89
2023/04/22 01:24:16;;;;;;;30.48;28.67;;;;;;;17.22;46.71;100692.47;5015492;28;20038;-88
2023/04/22 01:26:42;;;;;;;32.72;30.52;;;;;;;17.20;47.14;100699.31;5015698;28;20044;-89
2023/04/22 01:29:07;;;;;;;32.22;30.33;;;;;;;17.18;47.03;100696.84;5015684;28;20121;-90
2023/04/22 01:31:33;;;;;;;29.98;28.05;;;;;;;17.16;46.80;100709.16;5015692;28;20044;-89
2023/04/22 01:33:59;;;;;;;31.95;29.95;;;;;;;17.13;47.17;100696.91;5015939;28;20413;-88
2023/04/22 01:36:24;;;;;;;29.77;27.92;;;;;;;17.12;46.95;100698.03;5015573;28;20406;-88
2023/04/22 01:38:50;;;;;;;31.63;29.63;;;;;;;17.10;47.08;100692.03;5015446;28;20038;-89
2023/04/22 01:41:15;;;;;;;29.08;27.38;;;;;;;17.07;47.04;100698.88;5016216;28;20080;-87
2023/04/22 01:43:41;;;;;;;30.75;28.90;;;;;;;17.05;47.27;100700.28;5015265;28;20478;-88
2023/04/22 01:46:08;;;;;;;31.40;29.45;;;;;;;17.03;46.83;100700.56;5015346;28;20466;-89
2023/04/22 01:48:34;;;;;;;32.97;30.98;;;;;;;17.02;46.67;100695.38;5015447;28;20116;-88
2023/04/22 01:51:00;;;;;;;30.23;28.52;;;;;;;17.00;46.82;100689.41;5015217;28;20109;-89
2023/04/22 01:53:26;;;;;;;28.90;27.10;;;;;;;16.97;47.20;100681.78;5015409;28;20056;-88
2023/04/22 01:55:51;;;;;;;29.55;27.63;;;;;;;16.94;47.23;100680.47;5015000;28;20389;-88
2023/04/22 01:58:17;;;;;;;29.08;27.30;;;;;;;16.93;46.97;100686.19;5015218;28;20033;-87
2023/04/22 02:00:42;;;;;;;31.98;29.88;;;;;;;16.89;47.21;100683.22;5015250;28;20030;-88
2023/04/22 02:03:08;;;;;;;31.02;28.73;;;;;;;16.88;47.26;100692.50;5014536;28;20034;-87
2023/04/22 02:05:33;;;;;;;30.50;28.70;;;;;;;16.85;47.15;100687.63;5015095;28;20470;-89
2023/04/22 02:07:58;;;;;;;32.30;30.20;;;;;;;16.83;46.88;100690.66;5014871;28;20026;-87
2023/04/22 02:10:24;;;;;;;29.77;28.10;;;;;;;16.82;46.87;100686.28;5015569;28;20403;-87
2023/04/22 02:12:49;;;;;;;28.95;27.15;;;;;;;16.80;47.02;100682.22;5014762;28;20033;-87
2023/04/22 02:15:15;;;;;;;29.73;27.52;;;;;;;16.77;47.05;100675.38;5014796;28;20037;-89
2023/04/22 02:17:42;;;;;;;29.15;27.35;;;;;;;16.75;47.24;100674.84;5014780;28;20041;-88
2023/04/22 02:20:10;;;;;;;30.08;28.08;;;;;;;16.74;47.27;100677.88;5014649;28;20486;-85
2023/04/22 02:22:36;;;;;;;31.00;28.90;;;;;;;16.71;46.92;100668.34;5019979;28;20034;-87
2023/04/22 02:25:02;;;;;;;27.85;26.05;;;;;;;16.69;46.95;100667.81;5021164;28;20025;-88
2023/04/22 02:27:27;;;;;;;29.23;27.52;;;;;;;16.66;47.27;100660.22;5019154;28;20501;-88
2023/04/22 02:29:53;;;;;;;28.35;26.45;;;;;;;16.66;47.13;100662.94;5015154;28;20038;-89
2023/04/22 02:32:18;;;;;;;28.10;26.50;;;;;;;16.63;47.26;100661.59;4997865;28;20038;-88
2023/04/22 02:34:43;;;;;;;28.90;27.02;;;;;;;16.60;47.35;100662.16;5014740;28;20041;-88
2023/04/22 02:37:09;;;;;;;27.58;25.95;;;;;;;16.60;47.08;100666.78;5022571;28;20029;-84
2023/04/22 02:39:34;;;;;;;29.45;27.15;;;;;;;16.57;47.01;100659.19;5029140;28;20525;-88
2023/04/22 02:42:00;;;;;;;29.17;27.48;;;;;;;16.55;47.47;100659.44;4998434;28;20034;-85
2023/04/22 02:44:25;;;;;;;27.95;26.27;;;;;;;16.54;47.18;100657.03;5015055;28;20102;-87
2023/04/22 02:46:51;;;;;;;29.30;27.40;;;;;;;16.52;47.25;100653.78;5014357;28;20038;-87
2023/04/22 02:49:16;;;;;;;27.88;26.17;;;;;;;16.50;47.39;100659.50;5014765;28;20073;-89
2023/04/22 02:51:41;;;;;;;31.85;29.70;;;;;;;16.49;47.40;100659.78;5014575;28;20096;-86
2023/04/22 02:54:07;;;;;;;28.02;26.33;;;;;;;16.48;47.16;100660.88;5014936;28;20034;-88
2023/04/22 02:56:32;;;;;;;28.63;26.73;;;;;;;16.46;47.15;100665.81;5014015;28;20092;-77
2023/04/22 02:58:58;;;;;;;28.35;26.05;;;;;;;16.44;47.19;100661.44;5014241;28;20041;-84
2023/04/22 03:01:23;;;;;;;29.17;27.38;;;;;;;16.41;47.45;100659.31;5014364;28;20423;-89
2023/04/22 03:03:48;;;;;;;29.65;27.85;;;;;;;16.41;47.11;100661.22;5013954;28;20037;-88
2023/04/22 03:06:14;;;;;;;29.20;27.23;;;;;;;16.39;47.37;100655.22;5014134;28;20036;-89
2023/04/22 03:08:39;;;;;;;31.02;28.95;;;;;;;16.36;47.28;100645.72;4997188;28;20068;-88
2023/04/22 03:11:05;;;;;;;30.08;28.02;;;;;;;16.36;47.35;100647.63;5014609;28;20458;-89
2023/04/22 03:13:30;;;;;;;29.15;27.38;;;;;;;16.34;47.18;100645.16;5014477;28;20092;-88
2023/04/22 03:15:55;;;;;;;28.08;26.38;;;;;;;16.33;47.62;100642.72;5016697;28;20117;-87
2023/04/22 03:18:21;;;;;;;28.23;26.45;;;;;;;16.31;47.61;100639.50;5019656;28;20105;-88
2023/04/22 03:20:46;;;;;;;28.70;26.85;;;;;;;16.30;47.42;100635.13;5018457;28;20087;-87
2023/04/22 03:23:12;;;;;;;27.77;26.08;;;;;;;16.29;47.51;100630.78;5018785;28;20026;-87
2023/04/22 03:25:37;;;;;;;28.27;26.35;;;;;;;16.27;47.30;100630.25;5019589;28;20130;-87
2023/04/22 03:28:03;;;;;;;28.10;26.40;;;;;;;16.25;47.31;100627.78;4985115;28;20030;-88
2023/04/22 03:30:28;;;;;;;29.23;27.42;;;;;;;16.23;47.38;100621.81;5018288;28;20421;-88
2023/04/22 03:32:55;;;;;;;29.92;27.92;;;;;;;16.21;47.62;100624.00;5015521;28;20041;-88
2023/04/22 03:35:20;;;;;;;28.40;26.65;;;;;;;16.20;47.13;100614.19;5015282;28;20030;-85
2023/04/22 03:37:46;;;;;;;28.88;26.98;;;;;;;16.19;47.50;100615.31;5015399;28;20501;-88
2023/04/22 03:40:11;;;;;;;27.70;26.00;;;;;;;16.16;47.56;100611.22;5014605;28;20034;-89
2023/04/22 03:42:36;;;;;;;29.52;27.63;;;;;;;16.16;47.42;100599.53;5013685;28;20034;-89
2023/04/22 03:45:02;;;;;;;28.67;26.95;;;;;;;16.15;47.63;100595.16;5013662;28;20113;-88
2023/04/22 03:47:27;;;;;;;28.45;26.63;;;;;;;16.13;47.37;100600.09;5014055;28;20117;-88
2023/04/22 03:49:53;;;;;;;29.05;26.95;;;;;;;16.11;47.41;100594.91;5014004;28;20057;-88
2023/04/22 03:52:18;;;;;;;27.15;25.45;;;;;;;16.09;47.64;100591.66;4996660;28;20037;-88
2023/04/22 03:54:43;;;;;;;30.05;27.88;;;;;;;16.09;47.55;100585.41;5013794;28;20458;-83
2023/04/22 03:57:09;;;;;;;27.27;25.65;;;;;;;16.07;47.49;100577.50;5014155;28;20069;-86
2023/04/22 03:59:34;;;;;;;28.23;26.30;;;;;;;16.06;47.70;100581.34;5014154;28;20034;-86
2023/04/22 04:02:00;;;;;;;28.63;26.63;;;;;;;16.05;47.62;100587.06;5013363;28;20034;-88
2023/04/22 04:04:26;;;;;;;28.25;26.45;;;;;;;16.04;47.55;100588.16;5013914;28;20029;-86
2023/04/22 04:06:52;;;;;;;29.52;27.50;;;;;;;16.03;47.29;100587.34;5013552;28;20473;-87
2023/04/22 04:09:17;;;;;;;28.35;26.30;;;;;;;16.00;47.60;100586.00;5014431;28;20046;-87
2023/04/22 04:11:43;;;;;;;28.23;26.38;;;;;;;16.00;47.67;100596.06;5019254;28;20113;-84
2023/04/22 04:14:08;;;;;;;27.80;26.10;;;;;;;15.98;47.28;100588.19;5018353;28;20030;-88
2023/04/22 04:16:34;;;;;;;27.92;26.00;;;;;;;15.97;47.63;100577.56;5017088;28;20029;-89
2023/04/22 04:18:59;;;;;;;28.92;26.92;;;;;;;15.95;47.57;100577.88;5016989;28;20089;-88
2023/04/22 04:21:25;;;;;;;27.77;26.02;;;;;;;15.94;47.67;100572.69;5017169;28;20370;-87
2023/04/22 04:23:51;;;;;;;27.92;25.85;;;;;;;15.92;47.75;100572.97;5017855;28;20065;-88
2023/04/22 04:26:16;;;;;;;27.98;26.02;;;;;;;15.91;47.46;100568.63;5037770;28;20030;-83
2023/04/22 04:28:42;;;;;;;27.10;25.02;;;;;;;15.90;47.53;100577.06;5019713;28;20058;-77
2023/04/22 04:31:07;;;;;;;27.63;25.83;;;;;;;15.88;47.70;100569.19;5017613;28;20038;-88
2023/04/22 04:33:33;;;;;;;28.70;26.70;;;;;;;15.87;47.45;100566.75;5017247;28;20030;-84
2023/04/22 04:35:59;;;;;;;28.80;26.75;;;;;;;15.85;47.71;100567.03;4999804;28;20026;-86
2023/04/22 04:38:25;;;;;;;28.23;26.52;;;;;;;15.84;47.58;100559.13;5017341;28;20470;-88
2023/04/22 04:40:51;;;;;;;28.33;26.30;;;;;;;15.82;47.70;100567.59;5016675;28;20168;-88
2023/04/22 04:43:17;;;;;;;28.75;26.80;;;;;;;15.81;47.61;100568.69;5016916;28;20030;-88
2023/04/22 04:45:45;;;;;;;26.13;24.23;;;;;;;15.81;47.61;100570.59;5016871;28;20120;-87
2023/04/22 04:48:14;;;;;;;27.38;25.50;;;;;;;15.78;47.72;100561.09;5016752;28;20037;-88
2023/04/22 04:50:43;;;;;;;25.63;23.92;;;;;;;15.76;47.68;100566.81;5016839;28;20052;-89
2023/04/22 04:53:10;;;;;;;27.83;25.90;;;;;;;15.75;47.77;100573.38;5016430;28;20041;-89
2023/04/22 04:55:36;;;;;;;26.90;25.20;;;;;;;15.74;47.71;100581.81;5016519;28;20029;-90
2023/04/22 04:58:02;;;;;;;30.67;28.63;;;;;;;15.73;47.55;100578.28;5017405;28;20038;-89
2023/04/22 05:00:27;;;;;;;28.35;26.58;;;;;;;15.72;47.56;100581.25;5017400;28;20445;-89
2023/04/22 05:02:53;;;;;;;28.15;26.35;;;;;;;15.71;47.53;100583.19;5016308;28;20044;-89
2023/04/22 05:05:18;;;;;;;28.80;26.95;;;;;;;15.70;47.67;100575.28;5016422;28;20113;-89
2023/04/22 05:07:46;;;;;;;28.27;26.50;;;;;;;15.69;47.94;100571.75;5016666;28;20032;-88
2023/04/22 05:10:12;;;;;;;26.87;25.20;;;;;;;15.66;47.49;100566.84;5016342;28;20057;-89
2023/04/22 05:12:37;;;;;;;27.08;25.38;;;;;;;15.66;47.62;100566.03;5016031;28;20537;-90
2023/04/22 05:15:03;;;;;;;28.25;26.20;;;;;;;15.65;47.78;100576.13;5016553;28;20044;-89
2023/04/22 05:17:29;;;;;;;26.20;24.60;;;;;;;15.63;47.50;100585.66;5015601;28;20406;-88
2023/04/22 05:19:54;;;;;;;27.60;25.50;;;;;;;15.62;47.71;100579.38;4998207;28;20487;-89
2023/04/22 05:22:20;;;;;;;25.45;23.85;;;;;;;15.61;47.79;100575.03;5015453;28;20056;-86
2023/04/22 05:24:45;;;;;;;26.15;24.25;;;;;;;15.60;47.56;100581.59;5015406;28;20034;-87
2023/04/22 05:27:11;;;;;;;25.88;24.20;;;;;;;15.59;47.72;100578.03;5016104;28;20041;-89
2023/04/22 05:29:37;;;;;;;26.33;24.63;;;;;;;15.57;47.53;100573.94;5015807;28;20116;-89
2023/04/22 05:32:02;;;;;;;27.15;25.40;;;;;;;15.56;47.77;100578.59;4998375;28;20070;-87
2023/04/22 05:34:28;;;;;;;25.70;24.10;;;;;;;15.56;47.82;100577.78;5015891;28;20033;-88
2023/04/22 05:36:53;;;;;;;26.98;25.27;;;;;;;15.55;47.52;100573.44;5015786;28;20109;-88
2023/04/22 05:39:19;;;;;;;27.88;26.08;;;;;;;15.53;47.54;100576.44;5015031;28;20034;-83
2023/04/22 05:41:44;;;;;;;27.08;25.20;;;;;;;15.53;47.40;100575.63;5015024;28;20033;-88
2023/04/22 05:44:10;;;;;;;26.10;24.30;;;;;;;15.51;47.83;100567.72;4997883;28;20034;-89
2023/04/22 05:46:35;;;;;;;27.02;25.23;;;;;;;15.51;47.55;100569.66;5014621;28;20034;-88
2023/04/22 05:49:01;;;;;;;28.63;26.77;;;;;;;15.49;47.96;100564.47;4997635;28;20038;-88
2023/04/22 05:51:26;;;;;;;26.80;25.05;;;;;;;15.49;47.65;100566.38;5015091;28;20045;-88
2023/04/22 05:53:51;;;;;;;29.80;27.83;;;;;;;15.48;47.59;100572.94;5015360;28;20405;-87
2023/04/22 05:56:17;;;;;;;28.13;26.08;;;;;;;15.47;47.81;100558.50;5015194;28;20049;-85
2023/04/22 05:58:42;;;;;;;27.85;26.15;;;;;;;15.47;47.74;100560.41;4997832;28;20033;-88
2023/04/22 06:01:08;;;;;;;29.30;27.20;;;;;;;15.46;47.80;100567.75;5014204;28;20088;-87
2023/04/22 06:03:33;;;;;;;29.20;27.30;;;;;;;15.46;47.88;100558.78;5014879;28;20088;-87
2023/04/22 06:05:59;;;;;;;29.10;27.02;;;;;;;15.44;47.85;100553.59;5014875;28;20030;-88
2023/04/22 06:08:25;;;;;;;27.10;25.20;;;;;;;15.44;47.76;100555.53;5015522;28;20042;-86
2023/04/22 06:10:51;;;;;;;28.27;26.45;;;;;;;15.43;47.70;100557.44;5015086;28;20038;-78
2023/04/22 06:13:16;;;;;;;26.48;24.67;;;;;;;15.42;47.84;100555.81;5021235;28;20061;-85
2023/04/22 06:15:42;;;;;;;27.15;25.50;;;;;;;15.41;47.90;100551.44;5012943;28;20038;-89
2023/04/22 06:18:07;;;;;;;29.08;27.05;;;;;;;15.42;48.03;100552.25;5015125;28;20504;-87
2023/04/22 06:20:34;;;;;;;26.42;24.58;;;;;;;15.41;47.49;100547.91;4997141;28;20034;-88
2023/04/22 06:23:00;;;;;;;27.52;25.63;;;;;;;15.43;47.63;100553.91;5014769;28;20033;-88
2023/04/22 06:25:25;;;;;;;27.00;25.17;;;;;;;15.43;47.93;100553.91;5014971;28;20041;-86
2023/04/22 06:27:51;;;;;;;27.02;25.25;;;;;;;15.41;47.83;100548.72;5014549;28;20389;-85
2023/04/22 06:30:16;;;;;;;27.85;25.80;;;;;;;15.43;47.82;100559.34;4996986;28;20040;-88
2023/04/22 06:32:41;;;;;;;26.67;24.95;;;;;;;15.41;47.92;100546.00;5014233;28;20045;-84
2023/04/22 06:35:07;;;;;;;28.42;26.50;;;;;;;15.41;47.76;100548.72;5014109;28;20099;-85
2023/04/22 06:37:33;;;;;;;25.67;24.08;;;;;;;15.41;47.91;100543.28;5014170;28;20120;-86
2023/04/22 06:39:58;;;;;;;29.85;27.83;;;;;;;15.42;47.64;100535.94;5014287;28;20532;-85
2023/04/22 06:42:23;;;;;;;26.98;25.20;;;;;;;15.44;47.73;100536.47;5014549;28;20094;-87
2023/04/22 06:44:49;;;;;;;27.85;26.15;;;;;;;15.44;47.84;100533.75;4996810;28;20033;-86
2023/04/22 06:47:14;;;;;;;27.40;25.60;;;;;;;15.44;47.73;100528.31;4996934;28;20112;-85
2023/04/22 06:49:40;;;;;;;27.98;26.05;;;;;;;15.44;47.64;100533.75;5013978;28;20520;-86
2023/04/22 06:52:05;;;;;;;29.40;27.30;;;;;;;15.44;47.53;100534.56;5014055;28;20506;-86
2023/04/22 06:54:31;;;;;;;26.35;24.30;;;;;;;15.44;47.79;100529.09;5014364;28;20400;-87
2023/04/22 06:56:57;;;;;;;28.33;26.45;;;;;;;15.45;47.69;100546.28;5014013;28;20038;-85
2023/04/22 06:59:22;;;;;;;27.02;25.25;;;;;;;15.46;47.84;100551.41;5014400;28;20029;-86
2023/04/22 07:01:48;;;;;;;28.05;26.25;;;;;;;15.46;47.58;100545.97;5013842;28;20128;-86
2023/04/22 07:04:13;;;;;;;28.08;26.25;;;;;;;15.46;47.65;100548.69;5014194;28;20113;-85
2023/04/22 07:06:38;;;;;;;26.73;24.92;;;;;;;15.46;47.95;100540.53;5013768;28;20109;-86
2023/04/22 07:09:04;;;;;;;27.88;25.90;;;;;;;15.46;47.69;100540.53;5013587;28;20088;-84
2023/04/22 07:11:30;;;;;;;26.88;25.05;;;;;;;15.47;47.83;100536.72;5014794;28;20123;-86
2023/04/22 07:13:56;;;;;;;27.67;25.70;;;;;;;15.47;47.78;100531.28;5013962;28;20034;-85
2023/04/22 07:16:22;;;;;;;27.58;25.45;;;;;;;15.47;47.82;100536.72;5013591;28;20030;-86
2023/04/22 07:18:47;;;;;;;27.98;25.83;;;;;;;15.49;47.98;100536.44;5014177;28;20401;-85
2023/04/22 07:21:13;;;;;;;30.00;27.75;;;;;;;15.50;48.16;100543.53;5012948;28;20120;-87
2023/04/22 07:23:38;;;;;;;28.02;26.13;;;;;;;15.51;47.84;100548.66;4995883;28;20037;-84
2023/04/22 07:26:04;;;;;;;29.05;26.95;;;;;;;15.52;48.27;100542.16;5013938;28;20068;-84
2023/04/22 07:28:29;;;;;;;27.67;25.73;;;;;;;15.54;47.98;100533.69;5013620;28;20038;-84
2023/04/22 07:30:55;;;;;;;27.75;25.95;;;;;;;15.56;48.08;100545.91;5012948;28;20520;-85
2023/04/22 07:33:20;;;;;;;27.25;25.52;;;;;;;15.58;47.80;100545.66;5013358;28;20042;-86
2023/04/22 07:35:46;;;;;;;26.40;24.65;;;;;;;15.61;48.15;100549.72;5014046;28;20034;-85
2023/04/22 07:38:15;;;;;;;29.13;26.70;;;;;;;15.63;48.26;100552.97;5013240;28;20029;-84
2023/04/22 07:40:41;;;;;;;28.08;25.90;;;;;;;15.66;47.88;100549.69;5013347;28;20026;-84
2023/04/22 07:43:06;;;;;;;30.00;27.73;;;;;;;15.68;48.04;100525.72;5012154;28;20040;-85
2023/04/22 07:45:32;;;;;;;28.55;26.48;;;;;;;15.71;47.99;100519.75;5017419;28;20040;-84
2023/04/22 07:47:57;;;;;;;30.30;27.85;;;;;;;15.74;48.45;100519.16;4999951;28;20034;-83
2023/04/22 07:50:23;;;;;;;30.35;27.88;;;;;;;15.76;48.46;100514.25;5016842;28;20034;-84
2023/04/22 07:52:48;;;;;;;30.08;27.92;;;;;;;15.78;48.57;100512.88;5016478;28;20398;-86
2023/04/22 07:55:14;;;;;;;29.63;27.20;;;;;;;15.79;48.67;100509.03;5016655;28;20065;-85
2023/04/22 07:57:39;;;;;;;30.75;28.33;;;;;;;15.82;48.89;100510.38;5016638;28;20038;-87
2023/04/22 08:00:06;;;;;;;28.10;26.23;;;;;;;15.85;48.70;100514.47;5017199;28;20073;-87
2023/04/22 08:02:32;;;;;;;29.80;27.80;;;;;;;15.89;48.79;100507.34;5023140;28;20113;-68
2023/04/22 08:04:57;;;;;;;30.23;28.02;;;;;;;15.92;48.71;100514.94;5016470;28;20069;-83
2023/04/22 08:07:24;;;;;;;30.70;28.33;;;;;;;15.95;49.12;100512.50;5016840;28;20431;-84
2023/04/22 08:09:49;;;;;;;28.65;26.75;;;;;;;15.98;48.82;100508.38;5016372;28;20038;-81
2023/04/22 08:12:15;;;;;;;29.80;27.85;;;;;;;16.02;49.16;100507.50;5016447;28;20565;-82
2023/04/22 08:14:40;;;;;;;29.45;27.55;;;;;;;16.05;49.32;100497.97;5016443;28;20083;-84
2023/04/22 08:17:06;;;;;;;33.03;30.42;;;;;;;16.10;49.04;100497.94;5016255;28;20122;-82
2023/04/22 08:19:31;;;;;;;31.63;29.23;;;;;;;16.14;49.32;100490.00;5016458;28;20041;-81
2023/04/22 08:21:57;;;;;;;31.48;28.90;;;;;;;16.17;49.30;100482.03;5016203;28;20036;-81
2023/04/22 08:24:22;;;;;;;31.15;28.95;;;;;;;16.21;49.60;100483.13;5016672;28;20041;-83
2023/04/22 08:26:47;;;;;;;32.03;29.33;;;;;;;16.27;49.59;100485.78;4998347;28;20037;-82
2023/04/22 08:29:13;;;;;;;31.13;28.90;;;;;;;16.30;49.70;100488.75;5016050;28;20057;-83
2023/04/22 08:31:38;;;;;;;28.70;26.88;;;;;;;16.34;49.27;100476.16;5016507;28;20517;-72
2023/04/22 08:34:04;;;;;;;32.53;30.15;;;;;;;16.39;49.38;100467.94;5015873;28;20038;-73
2023/04/22 08:36:30;;;;;;;31.65;29.15;;;;;;;16.44;49.69;100465.16;5016090;28;20033;-81
2023/04/22 08:38:56;;;;;;;27.17;25.58;;;;;;;16.50;49.99;100471.38;5016417;28;20488;-82
2023/04/22 08:41:23;;;;;;;30.40;28.23;;;;;;;16.56;49.76;100461.25;5015928;28;20038;-81
2023/04/22 08:43:49;;;;;;;30.20;28.08;;;;;;;16.63;49.54;100453.50;5015882;28;20044;-81
2023/04/22 08:46:18;;;;;;;32.10;29.90;;;;;;;16.67;49.59;100436.28;5015450;28;20084;-78
2023/04/22 08:48:46;;;;;;;33.47;31.00;;;;;;;16.73;49.63;100431.59;5015639;28;20058;-80
2023/04/22 08:51:14;;;;;;;34.60;32.00;;;;;;;16.79;49.63;100433.16;5015920;28;20036;-81
2023/04/22 08:53:39;;;;;;;31.93;28.87;;;;;;;16.84;49.77;100435.84;4998003;28;20486;-81
2023/04/22 08:56:05;;;;;;;33.47;31.00;;;;;;;16.89;49.86;100429.50;5015259;28;20120;-81
2023/04/22 08:58:33;;;;;;;35.05;32.47;;;;;;;16.94;50.19;100425.91;5015543;28;20060;-81
2023/04/22 09:00:59;;;;;;;34.60;31.80;;;;;;;17.00;49.99;100419.28;5016168;28;20037;-82
2023/04/22 09:03:25;;;;;;;32.35;30.13;;;;;;;17.04;49.91;100423.84;5015293;28;20034;-79
2023/04/22 09:05:52;;;;;;;32.72;30.13;;;;;;;17.09;49.98;100433.88;5015552;28;20044;-78
2023/04/22 09:08:18;;;;;;;33.97;31.58;;;;;;;17.15;50.50;100437.34;5014347;28;20034;-81
2023/04/22 09:10:44;;;;;;;33.20;30.60;;;;;;;17.19;50.33;100432.94;5015455;28;20041;-79
2023/04/22 09:13:10;;;;;;;32.50;30.20;;;;;;;17.23;50.08;100428.50;5015263;28;20152;-80
2023/04/22 09:15:36;;;;;;;28.95;27.17;;;;;;;17.28;50.09;100442.88;5015890;28;20037;-77
2023/04/22 09:18:03;;;;;;;30.92;28.80;;;;;;;17.34;50.32;100445.53;5015230;28;20053;-85
2023/04/22 09:20:29;;;;;;;34.70;32.15;;;;;;;17.38;50.02;100444.66;5015665;28;20061;-83
2023/04/22 09:22:56;;;;;;;33.22;30.92;;;;;;;17.43;50.53;100443.78;5014845;28;20049;-83
2023/04/22 09:25:24;;;;;;;30.13;28.33;;;;;;;17.47;50.56;100439.34;5015470;28;20030;-88
2023/04/22 09:27:51;;;;;;;31.58;29.45;;;;;;;17.52;50.56;100436.53;5016339;28;20359;-84
2023/04/22 09:30:21;;;;;;;31.83;29.70;;;;;;;17.57;50.49;100431.00;5015066;28;20061;-79
2023/04/22 09:33:01;;;;;;;33.35;31.05;;;;;;;17.60;50.53;100430.41;5016089;28;20033;-78
2023/04/22 09:35:39;;;;;;;33.03;30.77;;;;;;;17.66;50.80;100436.59;5015692;28;20033;-77
2023/04/22 09:38:09;;;;;;;30.17;28.38;;;;;;;17.70;50.29;100443.09;5015494;28;20404;-80
2023/04/22 09:40:36;;;;;;;32.33;30.23;;;;;;;17.74;50.42;100450.41;5014939;28;20113;-77
2023/04/22 09:43:06;;;;;;;32.38;30.40;;;;;;;17.81;50.18;100460.16;5014848;28;20029;-82
2023/04/22 09:45:31;;;;;;;32.22;30.23;;;;;;;17.85;50.23;100453.00;5014793;28;20033;-81
2023/04/22 09:48:03;;;;;;;32.78;30.77;;;;;;;17.89;50.80;100452.09;5015291;28;20076;-86
2023/04/22 09:50:28;;;;;;;34.83;32.45;;;;;;;17.95;50.81;100452.81;5015264;28;20041;-80
2023/04/22 09:52:59;;;;;;;34.35;32.25;;;;;;;17.99;50.44;100448.34;5014726;28;20026;-81
2023/04/22 09:55:27;;;;;;;35.85;33.55;;;;;;;18.04;50.59;100447.47;5015601;28;20084;-80
2023/04/22 09:57:54;;;;;;;34.23;31.73;;;;;;;18.09;50.59;100450.09;5014555;28;20036;-81
2023/04/22 10:00:26;;;;;;;37.17;34.33;;;;;;;18.13;50.58;100451.16;4997906;28;20425;-79
2023/04/22 10:02:51;;;;;;;33.45;31.45;;;;;;;18.17;50.64;100442.03;4997492;28;20033;-79
2023/04/22 10:05:17;;;;;;;35.50;33.10;;;;;;;18.22;50.55;100438.41;4996751;28;20061;-79
2023/04/22 10:07:44;;;;;;;34.47;32.33;;;;;;;18.27;51.16;100440.22;5014352;28;20038;-80
2023/04/22 10:10:09;;;;;;;36.35;33.88;;;;;;;18.31;50.97;100450.25;5014505;28;20033;-82
2023/04/22 10:12:35;;;;;;;31.48;29.67;;;;;;;18.35;50.63;100454.03;5014802;28;20080;-82
2023/04/22 10:15:08;;;;;;;33.58;31.58;;;;;;;18.41;50.93;100457.47;5014252;28;20369;-71
2023/04/22 10:17:37;;;;;;;33.55;31.45;;;;;;;18.45;50.75;100450.28;5014680;28;20545;-77
2023/04/22 10:20:06;;;;;;;32.83;30.85;;;;;;;18.49;51.08;100447.75;5014199;28;20030;-75
2023/04/22 10:22:33;;;;;;;34.80;32.67;;;;;;;18.53;51.16;100441.38;5013257;28;20091;-75
2023/04/22 10:24:58;;;;;;;34.83;32.67;;;;;;;18.58;50.73;100444.00;5013895;28;20072;-77
2023/04/22 10:27:24;;;;;;;36.00;33.60;;;;;;;18.64;51.01;100443.91;5013842;28;20054;-76
2023/04/22 10:29:50;;;;;;;35.10;33.00;;;;;;;18.68;50.86;100436.72;5013588;28;20037;-77
2023/04/22 10:32:18;;;;;;;35.67;33.47;;;;;;;18.72;51.08;100433.09;5013743;28;20525;-76
2023/04/22 10:34:46;;;;;;;34.70;32.67;;;;;;;18.75;50.95;100423.44;5014027;28;20549;-76
2023/04/22 10:37:13;;;;;;;35.67;33.47;;;;;;;18.79;51.20;100422.53;5013568;28;20032;-76
2023/04/22 10:39:41;;;;;;;39.05;36.33;;;;;;;18.84;51.17;100435.31;5013200;28;20044;-77
2023/04/22 10:42:11;;;;;;;35.00;32.88;;;;;;;18.88;50.73;100435.53;5013745;28;20111;-77
2023/04/22 10:44:53;;;;;;;39.38;36.38;;;;;;;18.90;50.76;100431.38;5013872;28;20068;-77
2023/04/22 10:47:31;;;;;;;35.33;32.97;;;;;;;18.93;50.98;100440.91;5013762;28;20073;-78
2023/04/22 10:50:24;;;;;;;37.08;34.83;;;;;;;18.96;50.93;100449.28;5013933;28;20079;-76
2023/04/22 10:53:17;;;;;;;36.05;33.95;;;;;;;18.98;51.08;100459.94;5013705;28;20029;-77
2023/04/22 10:55:50;;;;;;;35.45;33.30;;;;;;;19.03;51.30;100470.78;5012856;28;20037;-82
2023/04/22 10:58:20;;;;;;;38.05;35.58;;;;;;;19.07;50.99;100470.97;5013782;28;20030;-84
2023/04/22 11:00:51;;;;;;;35.10;33.15;;;;;;;19.08;51.05;100484.38;5012423;28;20066;-74
2023/04/22 11:03:17;;;;;;;35.58;33.38;;;;;;;19.12;51.53;100476.34;5014157;28;20029;-74
2023/04/22 11:05:43;;;;;;;37.97;35.30;;;;;;;19.14;51.32;100472.19;5014137;28;20026;-75